createdAt,value
2022-11-27T00:01:13.132Z,102545.03
2022-11-27T00:03:40.819Z,102538.94
2022-11-27T00:06:11.824Z,102540.69
2022-11-27T00:08:38.471Z,102535.50
2022-11-27T00:11:26.144Z,102539.75
2022-11-27T00:13:52.776Z,102522.44
2022-11-27T00:16:21.094Z,102519.00
2022-11-27T00:18:49.642Z,102520.69
2022-11-27T00:21:22.749Z,102512.91
2022-11-27T00:23:51.205Z,102512.91
2022-11-27T00:26:18.295Z,102504.25
2022-11-27T00:28:45.507Z,102507.72
2022-11-27T00:31:22.375Z,102502.53
2022-11-27T00:33:49.554Z,102508.63
2022-11-27T00:36:16.714Z,102499.16
2022-11-27T00:38:43.263Z,102493.13
2022-11-27T00:41:18.885Z,102500.09
2022-11-27T00:43:46.143Z,102503.63
2022-11-27T00:46:28.720Z,102501.03
2022-11-27T00:48:56.552Z,102500.16
2022-11-27T00:51:24.359Z,102495.00
2022-11-27T00:53:51.930Z,102495.91
2022-11-27T00:56:26.970Z,102498.53
2022-11-27T00:58:54.235Z,102496.84
2022-11-27T01:01:29.321Z,102491.66
2022-11-27T01:03:57.837Z,102486.50
2022-11-27T01:06:25.737Z,102489.97
2022-11-27T01:08:52.467Z,102488.31
2022-11-27T01:11:21.658Z,102489.16
2022-11-27T01:13:48.558Z,102478.78
2022-11-27T01:16:20.730Z,102482.25
2022-11-27T01:18:48.663Z,102477.13
2022-11-27T01:21:19.163Z,102467.63
2022-11-27T01:23:46.147Z,102459.88
2022-11-27T01:26:13.496Z,102458.19
2022-11-27T01:28:41.129Z,102459.91
2022-11-27T01:31:11.074Z,102452.16
2022-11-27T01:33:40.635Z,102460.81
2022-11-27T01:36:08.235Z,102462.53
2022-11-27T01:38:36.588Z,102459.03
2022-11-27T01:41:06.020Z,102455.59
2022-11-27T01:43:43.316Z,102449.50
2022-11-27T01:46:24.184Z,102447.75
2022-11-27T01:48:52.985Z,102441.69
2022-11-27T01:51:21.137Z,102424.41
2022-11-27T01:53:54.344Z,102415.72
2022-11-27T01:56:22.374Z,102408.81
2022-11-27T01:58:49.714Z,102403.63
2022-11-27T02:01:16.382Z,102400.16
2022-11-27T02:03:42.948Z,102400.97
2022-11-27T02:06:13.397Z,102394.94
2022-11-27T02:08:40.974Z,102384.56
2022-11-27T02:11:38.434Z,102379.38
2022-11-27T02:14:23.922Z,102385.41
2022-11-27T02:16:58.876Z,102375.03
2022-11-27T02:20:01.521Z,102367.25
2022-11-27T02:23:05.850Z,102358.56
2022-11-27T02:25:57.125Z,102362.91
2022-11-27T02:28:57.457Z,102352.53
2022-11-27T02:31:36.720Z,102361.19
2022-11-27T02:34:14.703Z,102358.59
2022-11-27T02:36:49.010Z,102365.53
2022-11-27T02:39:20.671Z,102369.00
2022-11-27T02:42:10.233Z,102369.84
2022-11-27T02:44:41.729Z,102376.75
2022-11-27T02:47:08.536Z,102369.78
2022-11-27T02:49:36.877Z,102369.78
2022-11-27T02:52:04.602Z,102357.69
2022-11-27T02:54:33.020Z,102355.03
2022-11-27T02:57:03.656Z,102358.47
2022-11-27T02:59:32.448Z,102361.13
2022-11-27T03:02:05.424Z,102356.75
2022-11-27T03:04:39.365Z,102362.78
2022-11-27T03:07:11.944Z,102355.84
2022-11-27T03:09:49.923Z,102355.00
2022-11-27T03:12:18.173Z,102348.06
2022-11-27T03:14:46.485Z,102350.66
2022-11-27T03:17:35.876Z,102353.25
2022-11-27T03:20:13.239Z,102354.13
2022-11-27T03:22:39.931Z,102353.25
2022-11-27T03:25:11.653Z,102350.69
2022-11-27T03:27:48.294Z,102365.41
2022-11-27T03:30:14.966Z,102369.72
2022-11-27T03:32:41.461Z,102361.94
2022-11-27T03:35:09.734Z,102358.44
2022-11-27T03:37:41.334Z,102365.38
2022-11-27T03:40:10.754Z,102346.34
2022-11-27T03:43:11.246Z,102342.06
2022-11-27T03:45:46.751Z,102336.88
2022-11-27T03:48:31.374Z,102337.78
2022-11-27T03:51:16.433Z,102333.47
2022-11-27T03:54:37.474Z,102338.66
2022-11-27T03:57:14.659Z,102328.34
2022-11-27T03:59:44.730Z,102321.44
2022-11-27T04:02:15.529Z,102321.44
2022-11-27T04:04:42.376Z,102325.81
2022-11-27T04:07:16.800Z,102321.50
2022-11-27T04:09:43.246Z,102318.91
2022-11-27T04:12:09.679Z,102320.63
2022-11-27T04:14:36.116Z,102323.22
2022-11-27T04:17:02.539Z,102346.56
2022-11-27T04:19:29.170Z,102342.25
2022-11-27T04:21:55.771Z,102338.78
2022-11-27T04:24:22.349Z,102328.47
2022-11-27T04:26:48.777Z,102336.25
2022-11-27T04:29:15.191Z,102327.56
2022-11-27T04:31:42.651Z,102336.25
2022-11-27T04:34:09.129Z,102337.06
2022-11-27T04:36:39.191Z,102327.53
2022-11-27T04:39:06.424Z,102328.41
2022-11-27T04:41:32.823Z,102324.09
2022-11-27T04:43:59.774Z,102313.75
2022-11-27T04:46:26.189Z,102305.97
2022-11-27T04:48:52.629Z,102302.53
2022-11-27T04:51:19.070Z,102302.53
2022-11-27T04:53:45.449Z,102295.59
2022-11-27T04:56:11.965Z,102303.38
2022-11-27T04:58:38.356Z,102299.94
2022-11-27T05:01:04.834Z,102294.75
2022-11-27T05:03:31.410Z,102280.88
2022-11-27T05:05:57.928Z,102278.28
2022-11-27T05:08:26.100Z,102283.47
2022-11-27T05:11:08.397Z,102283.47
2022-11-27T05:13:34.984Z,102270.47
2022-11-27T05:16:01.882Z,102263.56
2022-11-27T05:18:28.581Z,102257.50
2022-11-27T05:21:00.462Z,102259.19
2022-11-27T05:23:28.067Z,102263.50
2022-11-27T05:25:55.476Z,102252.25
2022-11-27T05:28:26.586Z,102254.81
2022-11-27T05:30:54.050Z,102254.81
2022-11-27T05:33:20.782Z,102255.63
2022-11-27T05:35:47.590Z,102245.22
2022-11-27T05:38:14.195Z,102241.78
2022-11-27T05:40:40.583Z,102250.41
2022-11-27T05:43:07.210Z,102235.72
2022-11-27T05:45:33.649Z,102245.19
2022-11-27T05:48:00.738Z,102246.91
2022-11-27T05:50:27.144Z,102230.47
2022-11-27T05:52:53.565Z,102231.28
2022-11-27T05:55:20.119Z,102226.97
2022-11-27T05:57:48.592Z,102234.72
2022-11-27T06:00:15.643Z,102227.78
2022-11-27T06:02:43.262Z,102229.53
2022-11-27T06:05:09.864Z,102234.72
2022-11-27T06:07:36.485Z,102226.09
2022-11-27T06:10:03.935Z,102230.41
2022-11-27T06:12:32.549Z,102231.28
2022-11-27T06:14:59.327Z,102228.69
2022-11-27T06:17:25.901Z,102220.91
2022-11-27T06:19:52.307Z,102234.75
2022-11-27T06:22:18.778Z,102227.88
2022-11-27T06:24:45.189Z,102226.97
2022-11-27T06:27:11.634Z,102222.69
2022-11-27T06:29:38.121Z,102220.94
2022-11-27T06:32:05.500Z,102214.91
2022-11-27T06:34:32.094Z,102208.03
2022-11-27T06:36:58.873Z,102207.13
2022-11-27T06:39:25.477Z,102203.69
2022-11-27T06:41:52.014Z,102198.50
2022-11-27T06:44:19.111Z,102201.09
2022-11-27T06:46:45.522Z,102188.16
2022-11-27T06:49:12.082Z,102190.72
2022-11-27T06:51:38.746Z,102203.69
2022-11-27T06:54:05.464Z,102195.00
2022-11-27T06:56:32.832Z,102195.84
2022-11-27T06:59:01.192Z,102193.25
2022-11-27T07:01:30.057Z,102198.44
2022-11-27T07:03:57.573Z,102205.34
2022-11-27T07:06:27.181Z,102197.56
2022-11-27T07:08:55.101Z,102181.13
2022-11-27T07:11:25.065Z,102181.13
2022-11-27T07:13:54.233Z,102176.78
2022-11-27T07:16:21.124Z,102171.59
2022-11-27T07:18:51.453Z,102167.25
2022-11-27T07:21:20.092Z,102165.56
2022-11-27T07:23:47.217Z,102153.44
2022-11-27T07:26:46.246Z,102160.28
2022-11-27T07:29:12.772Z,102150.78
2022-11-27T07:31:39.897Z,102143.03
2022-11-27T07:34:11.728Z,102137.81
2022-11-27T07:36:40.749Z,102131.78
2022-11-27T07:39:07.302Z,102129.25
2022-11-27T07:41:34.438Z,102140.47
2022-11-27T07:44:01.722Z,102133.53
2022-11-27T07:46:30.105Z,102132.69
2022-11-27T07:48:56.615Z,102122.31
2022-11-27T07:51:38.660Z,102124.00
2022-11-27T07:54:05.190Z,102119.66
2022-11-27T07:56:35.045Z,102126.59
2022-11-27T07:59:01.572Z,102128.31
2022-11-27T08:01:30.560Z,102130.88
2022-11-27T08:03:59.939Z,102127.41
2022-11-27T08:06:33.649Z,102128.28
2022-11-27T08:09:03.404Z,102123.94
2022-11-27T08:11:35.352Z,102121.34
2022-11-27T08:14:05.507Z,102119.56
2022-11-27T08:16:33.997Z,102117.81
2022-11-27T08:19:01.105Z,102107.41
2022-11-27T08:21:30.106Z,102112.56
2022-11-27T08:24:02.131Z,102105.63
2022-11-27T08:26:36.259Z,102105.56
2022-11-27T08:29:03.211Z,102104.72
2022-11-27T08:31:33.953Z,102109.91
2022-11-27T08:34:03.909Z,102102.91
2022-11-27T08:36:34.310Z,102108.09
2022-11-27T08:39:01.871Z,102109.75
2022-11-27T08:41:28.686Z,102108.91
2022-11-27T08:43:57.287Z,102112.31
2022-11-27T08:46:23.726Z,102107.13
2022-11-27T08:48:50.316Z,102109.75
2022-11-27T08:51:17.929Z,102108.91
2022-11-27T08:53:46.635Z,102101.97
2022-11-27T08:56:42.001Z,102107.16
2022-11-27T08:59:13.076Z,102102.78
2022-11-27T09:01:48.891Z,102105.34
2022-11-27T09:04:16.014Z,102104.50
2022-11-27T09:06:51.047Z,102108.75
2022-11-27T09:09:22.860Z,102107.88
2022-11-27T09:11:50.212Z,102106.06
2022-11-27T09:14:17.061Z,102108.66
2022-11-27T09:16:44.500Z,102107.75
2022-11-27T09:19:12.268Z,102105.94
2022-11-27T09:21:39.082Z,102093.81
2022-11-27T09:24:06.418Z,102105.03
2022-11-27T09:26:32.842Z,102101.53
2022-11-27T09:29:04.057Z,102102.31
2022-11-27T09:31:35.529Z,102102.28
2022-11-27T09:34:02.214Z,102095.31
2022-11-27T09:36:34.997Z,102096.94
2022-11-27T09:39:03.745Z,102095.19
2022-11-27T09:41:45.058Z,102095.13
2022-11-27T09:44:15.518Z,102090.72
2022-11-27T09:46:44.838Z,102091.56
2022-11-27T09:49:19.991Z,102085.44
2022-11-27T09:52:04.322Z,102076.69
2022-11-27T09:54:52.231Z,102064.50
2022-11-27T09:57:33.025Z,102072.22
2022-11-27T10:00:06.614Z,102065.22
2022-11-27T10:02:38.614Z,102071.19
2022-11-27T10:05:34.284Z,102056.44
2022-11-27T10:08:09.363Z,102062.41
2022-11-27T10:11:23.526Z,102062.34
2022-11-27T10:14:14.140Z,102058.78
2022-11-27T10:16:51.972Z,102057.03
2022-11-27T10:19:24.441Z,102045.72
2022-11-27T10:22:27.574Z,102050.00
2022-11-27T10:25:32.546Z,102042.13
2022-11-27T10:28:05.664Z,102035.19
2022-11-27T10:30:49.078Z,102032.53
2022-11-27T10:33:22.385Z,102025.56
2022-11-27T10:35:49.886Z,102025.59
2022-11-27T10:38:28.779Z,102028.16
2022-11-27T10:41:07.811Z,102029.00
2022-11-27T10:43:39.304Z,102024.66
2022-11-27T10:46:34.872Z,102022.00
2022-11-27T10:49:02.137Z,102021.00
2022-11-27T10:51:49.989Z,102013.16
2022-11-27T10:54:38.465Z,102008.75
2022-11-27T10:57:51.105Z,102002.53
2022-11-27T11:00:25.283Z,101986.81
2022-11-27T11:03:16.636Z,101975.44
2022-11-27T11:06:19.094Z,101981.44
2022-11-27T11:09:22.306Z,101978.75
2022-11-27T11:11:51.992Z,101967.41
2022-11-27T11:14:21.353Z,101964.75
2022-11-27T11:16:50.162Z,101969.09
2022-11-27T11:19:36.470Z,101965.56
2022-11-27T11:22:18.920Z,101962.00
2022-11-27T11:25:02.248Z,101954.13
2022-11-27T11:27:34.706Z,101958.31
2022-11-27T11:33:41.044Z,101923.16
2022-11-27T11:36:32.397Z,101926.44
2022-11-27T11:39:00.502Z,101919.47
2022-11-27T11:41:37.406Z,101918.53
2022-11-27T11:44:20.390Z,101923.63
2022-11-27T11:46:53.717Z,101914.16
2022-11-27T11:49:28.212Z,101911.50
2022-11-27T11:52:22.107Z,101910.56
2022-11-27T11:54:52.691Z,101906.19
2022-11-27T11:57:27.181Z,101899.25
2022-11-27T12:00:22.892Z,101893.16
2022-11-27T12:03:15.355Z,101899.31
2022-11-27T12:06:26.966Z,101888.91
2022-11-27T12:09:14.659Z,101886.22
2022-11-27T12:12:11.135Z,101885.28
2022-11-27T12:14:46.783Z,101865.09
2022-11-27T12:17:21.323Z,101875.44
2022-11-27T12:20:05.353Z,101864.88
2022-11-27T12:22:43.679Z,101857.84
2022-11-27T12:25:29.037Z,101849.97
2022-11-27T12:28:06.014Z,101837.03
2022-11-27T12:30:55.645Z,101828.41
2022-11-27T12:33:38.208Z,101813.72
2022-11-27T12:36:07.593Z,101824.91
2022-11-27T12:38:40.305Z,101824.97
2022-11-27T12:41:09.897Z,101831.97
2022-11-27T12:43:43.740Z,101825.97
2022-11-27T12:46:17.539Z,101822.47
2022-11-27T12:48:51.704Z,101829.44
2022-11-27T12:51:30.859Z,101819.03
2022-11-27T12:54:01.131Z,101806.09
2022-11-27T12:56:36.825Z,101798.22
2022-11-27T12:59:16.621Z,101797.38
2022-11-27T13:01:47.658Z,101801.63
2022-11-27T13:04:23.806Z,101799.03
2022-11-27T13:07:03.432Z,101794.75
2022-11-27T13:09:55.021Z,101790.56
2022-11-27T13:12:28.655Z,101793.22
2022-11-27T13:15:02.627Z,101794.94
2022-11-27T13:17:42.517Z,101789.81
2022-11-27T13:20:21.763Z,101787.34
2022-11-27T13:22:49.102Z,101775.34
2022-11-27T13:25:15.710Z,101777.94
2022-11-27T13:27:47.256Z,101767.63
2022-11-27T13:30:35.582Z,101773.75
2022-11-27T13:33:06.381Z,101766.88
2022-11-27T13:35:42.497Z,101767.81
2022-11-27T13:38:23.268Z,101765.22
2022-11-27T13:40:56.068Z,101757.56
2022-11-27T13:43:43.501Z,101766.22
2022-11-27T13:46:22.509Z,101759.25
2022-11-27T13:49:00.954Z,101761.00
2022-11-27T13:51:36.390Z,101751.47
2022-11-27T13:54:12.195Z,101748.28
2022-11-27T13:56:40.281Z,101732.09
2022-11-27T13:59:22.882Z,101728.69
2022-11-27T14:02:05.149Z,101729.50
2022-11-27T14:04:32.940Z,101722.56
2022-11-27T14:07:09.794Z,101720.88
2022-11-27T14:09:38.458Z,101713.88
2022-11-27T14:12:19.381Z,101706.97
2022-11-27T14:14:58.999Z,101711.38
2022-11-27T14:17:41.430Z,101705.28
2022-11-27T14:20:32.280Z,101704.47
2022-11-27T14:23:15.460Z,101700.22
2022-11-27T14:25:42.042Z,101694.16
2022-11-27T14:28:26.157Z,101690.69
2022-11-27T14:31:00.289Z,101692.44
2022-11-27T14:33:31.113Z,101685.50
2022-11-27T14:36:03.825Z,101682.06
2022-11-27T14:38:32.944Z,101688.19
2022-11-27T14:41:11.457Z,101675.25
2022-11-27T14:43:38.048Z,101672.66
2022-11-27T14:46:08.180Z,101664.06
2022-11-27T14:48:41.609Z,101659.75
2022-11-27T14:51:18.325Z,101652.88
2022-11-27T14:53:46.984Z,101656.34
2022-11-27T14:56:15.036Z,101656.31
2022-11-27T14:58:52.246Z,101653.75
2022-11-27T15:01:26.591Z,101645.09
2022-11-27T15:04:02.503Z,101652.13
2022-11-27T15:06:35.908Z,101641.75
2022-11-27T15:09:30.104Z,101641.75
2022-11-27T15:12:03.440Z,101645.25
2022-11-27T15:14:30.747Z,101641.81
2022-11-27T15:17:00.243Z,101650.47
2022-11-27T15:19:36.470Z,101647.03
2022-11-27T15:22:03.676Z,101638.38
2022-11-27T15:24:34.098Z,101640.06
2022-11-27T15:27:13.860Z,101634.81
2022-11-27T15:29:44.354Z,101629.59
2022-11-27T15:32:24.551Z,101631.34
2022-11-27T15:34:52.898Z,101617.59
2022-11-27T15:37:32.358Z,101614.97
2022-11-27T15:40:01.183Z,101607.19
2022-11-27T15:42:28.677Z,101604.56
2022-11-27T15:44:57.218Z,101599.38
2022-11-27T15:47:36.712Z,101594.13
2022-11-27T15:50:05.392Z,101593.28
2022-11-27T15:52:31.961Z,101587.16
2022-11-27T15:54:58.757Z,101588.00
2022-11-27T15:57:26.287Z,101590.56
2022-11-27T15:59:52.918Z,101583.66
2022-11-27T16:02:21.392Z,101587.97
2022-11-27T16:04:47.948Z,101589.66
2022-11-27T16:07:14.611Z,101586.22
2022-11-27T16:09:41.214Z,101580.94
2022-11-27T16:12:19.173Z,101585.28
2022-11-27T16:14:46.171Z,101581.75
2022-11-27T16:17:12.663Z,101577.41
2022-11-27T16:19:39.272Z,101579.09
2022-11-27T16:22:05.662Z,101566.97
2022-11-27T16:24:32.140Z,101561.78
2022-11-27T16:26:58.875Z,101565.22
2022-11-27T16:29:25.340Z,101559.94
2022-11-27T16:31:51.885Z,101561.59
2022-11-27T16:34:18.572Z,101546.84
2022-11-27T16:36:45.292Z,101547.69
2022-11-27T16:39:12.699Z,101541.59
2022-11-27T16:41:39.716Z,101532.09
2022-11-27T16:44:11.853Z,101529.44
2022-11-27T16:46:39.212Z,101526.84
2022-11-27T16:49:09.330Z,101521.56
2022-11-27T16:51:38.279Z,101520.66
2022-11-27T16:54:07.719Z,101519.81
2022-11-27T16:56:35.288Z,101511.19
2022-11-27T16:59:04.511Z,101503.44
2022-11-27T17:01:35.355Z,101512.94
2022-11-27T17:06:52.491Z,101500.78
2022-11-27T17:09:22.496Z,101496.50
2022-11-27T17:14:38.928Z,101493.88
2022-11-27T17:17:06.513Z,101491.31
2022-11-27T17:22:14.936Z,101490.56
2022-11-27T17:24:41.406Z,101487.94
2022-11-27T17:27:07.772Z,101488.84
2022-11-27T17:29:35.642Z,101479.34
2022-11-27T17:32:02.264Z,101484.53
2022-11-27T17:34:29.359Z,101475.84
2022-11-27T17:36:57.551Z,101486.22
2022-11-27T17:39:31.522Z,101472.38
2022-11-27T17:41:57.973Z,101469.78
2022-11-27T17:44:24.530Z,101468.94
2022-11-27T17:46:51.056Z,101467.25
2022-11-27T17:49:26.704Z,101463.00
2022-11-27T17:51:53.511Z,101461.34
2022-11-27T17:54:20.099Z,101450.97
2022-11-27T17:56:51.097Z,101457.00
2022-11-27T17:59:19.172Z,101448.31
2022-11-27T18:01:51.843Z,101447.50
2022-11-27T18:04:19.505Z,101437.13
2022-11-27T18:06:46.241Z,101445.75
2022-11-27T18:09:13.358Z,101432.00
2022-11-27T18:11:40.123Z,101438.06
2022-11-27T18:14:06.585Z,101425.03
2022-11-27T18:16:37.009Z,101419.88
2022-11-27T18:19:10.096Z,101417.28
2022-11-27T18:21:37.879Z,101410.38
2022-11-27T18:27:07.752Z,101406.13
2022-11-27T18:29:40.817Z,101402.75
2022-11-27T18:32:08.475Z,101400.19
2022-11-27T18:34:35.197Z,101407.16
2022-11-27T18:37:02.186Z,101401.19
2022-11-27T18:39:28.869Z,101395.13
2022-11-27T18:41:55.460Z,101398.63
2022-11-27T18:44:22.219Z,101395.22
2022-11-27T18:46:48.925Z,101384.06
2022-11-27T18:49:15.385Z,101387.50
2022-11-27T18:51:41.937Z,101383.31
2022-11-27T18:54:08.740Z,101383.34
2022-11-27T18:56:37.119Z,101372.97
2022-11-27T18:59:06.457Z,101375.56
2022-11-27T19:01:41.273Z,101378.16
2022-11-27T19:04:09.271Z,101369.59
2022-11-27T19:06:37.072Z,101363.53
2022-11-27T19:09:05.459Z,101354.94
2022-11-27T19:11:32.789Z,101361.06
2022-11-27T19:13:59.852Z,101360.16
2022-11-27T19:16:30.927Z,101356.69
2022-11-27T19:18:58.667Z,101349.81
2022-11-27T19:21:27.694Z,101355.91
2022-11-27T19:23:55.141Z,101351.53
2022-11-27T19:26:24.661Z,101342.97
2022-11-27T19:28:53.175Z,101341.31
2022-11-27T19:31:21.144Z,101344.78
2022-11-27T19:33:56.358Z,101345.63
2022-11-27T19:36:23.190Z,101344.78
2022-11-27T19:39:01.683Z,101331.84
2022-11-27T19:41:28.378Z,101334.34
2022-11-27T19:43:55.024Z,101330.88
2022-11-27T19:46:27.493Z,101327.41
2022-11-27T19:49:00.097Z,101331.00
2022-11-27T19:51:27.846Z,101320.63
2022-11-27T19:53:54.696Z,101320.63
2022-11-27T19:56:23.604Z,101310.22
2022-11-27T19:58:50.300Z,101298.94
2022-11-27T20:01:19.386Z,101304.19
2022-11-27T20:03:50.166Z,101309.41
2022-11-27T20:06:20.283Z,101278.25
2022-11-27T20:08:53.863Z,101285.19
2022-11-27T20:11:22.971Z,101278.25
2022-11-27T20:13:50.147Z,101277.41
2022-11-27T20:16:20.275Z,101268.75
2022-11-27T20:18:46.980Z,101265.41
2022-11-27T20:21:31.660Z,101259.31
2022-11-27T20:23:58.407Z,101257.59
2022-11-27T20:26:26.987Z,101253.28
2022-11-27T20:28:54.051Z,101254.22
2022-11-27T20:31:27.105Z,101243.81
2022-11-27T20:33:56.190Z,101248.09
2022-11-27T20:36:23.645Z,101242.91
2022-11-27T20:38:51.727Z,101237.69
2022-11-27T20:41:19.774Z,101242.06
2022-11-27T20:43:46.948Z,101233.41
2022-11-27T20:46:15.955Z,101232.50
2022-11-27T20:48:45.847Z,101230.81
2022-11-27T20:51:17.038Z,101228.22
2022-11-27T20:53:45.575Z,101223.03
2022-11-27T20:56:14.075Z,101218.78
2022-11-27T20:58:42.204Z,101217.94
2022-11-27T21:01:22.221Z,101212.75
2022-11-27T21:03:50.640Z,101214.44
2022-11-27T21:06:19.658Z,101215.34
2022-11-27T21:08:46.345Z,101207.56
2022-11-27T21:11:16.206Z,101204.03
2022-11-27T21:13:44.871Z,101201.44
2022-11-27T21:16:19.783Z,101197.16
2022-11-27T21:18:56.519Z,101204.03
2022-11-27T21:21:23.179Z,101194.50
2022-11-27T21:23:49.760Z,101197.97
2022-11-27T21:26:16.526Z,101194.56
2022-11-27T21:29:03.363Z,101187.63
2022-11-27T21:31:37.289Z,101188.47
2022-11-27T21:34:06.118Z,101184.19
2022-11-27T21:36:35.872Z,101179.91
2022-11-27T21:39:08.040Z,101178.06
2022-11-27T21:41:35.721Z,101184.25
2022-11-27T21:44:03.700Z,101179.91
2022-11-27T21:46:33.969Z,101167.78
2022-11-27T21:49:01.659Z,101169.50
2022-11-27T21:51:29.834Z,101168.66
2022-11-27T21:54:00.966Z,101166.00
2022-11-27T21:56:30.304Z,101166.91
2022-11-27T21:58:57.080Z,101155.59
2022-11-27T22:01:25.335Z,101156.53
2022-11-27T22:03:55.289Z,101153.00
2022-11-27T22:06:48.012Z,101159.13
2022-11-27T22:09:15.950Z,101158.19
2022-11-27T22:11:44.351Z,101147.75
2022-11-27T22:14:11.243Z,101151.97
2022-11-27T22:16:44.722Z,101138.94
2022-11-27T22:19:14.254Z,101140.63
2022-11-27T22:21:41.377Z,101125.03
2022-11-27T22:24:13.489Z,101124.19
2022-11-27T22:26:41.533Z,101119.00
2022-11-27T22:29:08.055Z,101108.66
2022-11-27T22:31:37.830Z,101105.09
2022-11-27T22:34:04.802Z,101106.00
2022-11-27T22:36:33.439Z,101104.19
2022-11-27T22:39:05.811Z,101094.72
2022-11-27T22:41:36.302Z,101093.88
2022-11-27T22:44:11.037Z,101086.91
2022-11-27T22:46:40.150Z,101075.59
2022-11-27T22:49:07.331Z,101079.06
2022-11-27T22:51:35.852Z,101081.66
2022-11-27T22:54:05.625Z,101076.53
2022-11-27T22:56:36.226Z,101069.56
2022-11-27T22:59:31.748Z,101066.09
2022-11-27T23:01:51.286Z,101066.94
2022-11-27T23:04:17.942Z,101085.13
2022-11-27T23:06:48.545Z,101077.31
2022-11-27T23:09:16.402Z,101071.19
2022-11-27T23:11:43.005Z,101066.09
2022-11-27T23:14:09.499Z,101067.75
2022-11-27T23:16:36.426Z,101065.13
2022-11-27T23:19:03.851Z,101059.94
2022-11-27T23:21:30.542Z,101045.13
2022-11-27T23:23:56.944Z,101049.50
2022-11-27T23:26:24.025Z,101066.75
2022-11-27T23:28:53.483Z,101069.34
2022-11-27T23:31:29.931Z,101047.72
2022-11-27T23:33:59.637Z,101054.59
2022-11-27T23:36:26.035Z,101042.53
2022-11-27T23:38:52.692Z,101044.22
2022-11-27T23:41:24.482Z,101037.34
2022-11-27T23:43:52.442Z,101036.41
2022-11-27T23:46:23.525Z,101034.75
2022-11-27T23:48:50.096Z,101038.19
2022-11-27T23:51:23.553Z,101032.06
2022-11-27T23:53:50.444Z,101025.16
2022-11-27T23:56:22.586Z,101022.47
2022-11-27T23:58:49.480Z,101031.94
